sensor_id;sensor_type;location;lat;lon;timestamp;pressure;altitude;pressure_sealevel;temperature;humidity
23339;BME280;11841;49.368;20.962;2023-06-01T00:02:08;96068.34;;;8.86;79.07
23339;BME280;11841;49.368;20.962;2023-06-01T00:04:55;96068.72;;;8.83;78.99
23339;BME280;11841;49.368;20.962;2023-06-01T00:07:40;96068.94;;;8.82;78.75
23339;BME280;11841;49.368;20.962;2023-06-01T00:10:25;96072.97;;;8.78;78.56
23339;BME280;11841;49.368;20.962;2023-06-01T00:13:10;96073.78;;;8.72;78.82
23339;BME280;11841;49.368;20.962;2023-06-01T00:15:56;96068.25;;;8.67;79.51
23339;BME280;11841;49.368;20.962;2023-06-01T00:18:42;96063.53;;;8.62;79.43
23339;BME280;11841;49.368;20.962;2023-06-01T00:21:27;96071.47;;;8.62;79.07
23339;BME280;11841;49.368;20.962;2023-06-01T00:24:13;96074.72;;;8.57;79.41
23339;BME280;11841;49.368;20.962;2023-06-01T00:26:59;96072.06;;;8.57;78.93
23339;BME280;11841;49.368;20.962;2023-06-01T00:29:44;96062.72;;;8.55;78.95
23339;BME280;11841;49.368;20.962;2023-06-01T00:32:29;96063.91;;;8.52;79.40
23339;BME280;11841;49.368;20.962;2023-06-01T00:35:15;96058.63;;;8.52;79.12
23339;BME280;11841;49.368;20.962;2023-06-01T00:38:00;96059.97;;;8.42;79.27
23339;BME280;11841;49.368;20.962;2023-06-01T00:40:45;96065.44;;;8.34;79.44
23339;BME280;11841;49.368;20.962;2023-06-01T00:43:35;96059.28;;;8.27;79.88
23339;BME280;11841;49.368;20.962;2023-06-01T00:46:20;96065.13;;;8.22;79.24
23339;BME280;11841;49.368;20.962;2023-06-01T00:49:06;96070.97;;;8.18;79.84
23339;BME280;11841;49.368;20.962;2023-06-01T00:51:52;96063.63;;;8.13;79.88
23339;BME280;11841;49.368;20.962;2023-06-01T00:54:38;96074.59;;;8.10;79.48
23339;BME280;11841;49.368;20.962;2023-06-01T00:57:24;96075.59;;;8.09;80.10
23339;BME280;11841;49.368;20.962;2023-06-01T01:00:12;96072.09;;;8.02;79.96
23339;BME280;11841;49.368;20.962;2023-06-01T01:02:58;96070.00;;;7.98;79.78
23339;BME280;11841;49.368;20.962;2023-06-01T01:05:45;96072.41;;;7.93;80.35
23339;BME280;11841;49.368;20.962;2023-06-01T01:08:36;96075.44;;;7.90;79.83
23339;BME280;11841;49.368;20.962;2023-06-01T01:11:26;96074.81;;;7.88;79.61
23339;BME280;11841;49.368;20.962;2023-06-01T01:17:10;96070.31;;;7.82;79.93
23339;BME280;11841;49.368;20.962;2023-06-01T01:20:28;96068.06;;;7.79;79.54
23339;BME280;11841;49.368;20.962;2023-06-01T01:26:52;96065.72;;;7.69;79.85
23339;BME280;11841;49.368;20.962;2023-06-01T01:29:43;96066.94;;;7.67;79.69
23339;BME280;11841;49.368;20.962;2023-06-01T01:32:31;96068.31;;;7.63;80.25
23339;BME280;11841;49.368;20.962;2023-06-01T01:35:17;96062.78;;;7.58;80.08
23339;BME280;11841;49.368;20.962;2023-06-01T01:38:03;96057.72;;;7.56;80.45
23339;BME280;11841;49.368;20.962;2023-06-01T01:40:48;96065.19;;;7.53;80.42
23339;BME280;11841;49.368;20.962;2023-06-01T01:43:38;96060.91;;;7.52;80.08
23339;BME280;11841;49.368;20.962;2023-06-01T01:49:38;96051.50;;;7.43;80.11
23339;BME280;11841;49.368;20.962;2023-06-01T01:52:31;96050.84;;;7.41;80.65
23339;BME280;11841;49.368;20.962;2023-06-01T01:55:18;96046.41;;;7.41;80.82
23339;BME280;11841;49.368;20.962;2023-06-01T01:58:08;96042.31;;;7.38;80.78
23339;BME280;11841;49.368;20.962;2023-06-01T02:00:54;96048.41;;;7.39;80.23
23339;BME280;11841;49.368;20.962;2023-06-01T02:03:41;96048.78;;;7.36;80.42
23339;BME280;11841;49.368;20.962;2023-06-01T02:06:26;96041.44;;;7.31;80.51
23339;BME280;11841;49.368;20.962;2023-06-01T02:09:11;96041.19;;;7.26;80.72
23339;BME280;11841;49.368;20.962;2023-06-01T02:11:57;96045.66;;;7.26;80.61
23339;BME280;11841;49.368;20.962;2023-06-01T02:14:42;96038.91;;;7.23;80.59
23339;BME280;11841;49.368;20.962;2023-06-01T02:17:27;96038.28;;;7.21;80.68
23339;BME280;11841;49.368;20.962;2023-06-01T02:20:13;96039.69;;;7.17;80.93
23339;BME280;11841;49.368;20.962;2023-06-01T02:22:59;96033.97;;;7.14;80.78
23339;BME280;11841;49.368;20.962;2023-06-01T02:25:44;96029.88;;;7.11;81.21
23339;BME280;11841;49.368;20.962;2023-06-01T02:28:30;96026.78;;;7.08;81.27
23339;BME280;11841;49.368;20.962;2023-06-01T02:31:15;96026.16;;;7.06;80.82
23339;BME280;11841;49.368;20.962;2023-06-01T02:34:01;96009.94;;;7.02;81.12
23339;BME280;11841;49.368;20.962;2023-06-01T02:36:46;96018.00;;;7.01;81.42
23339;BME280;11841;49.368;20.962;2023-06-01T02:39:33;96028.72;;;6.99;80.96
23339;BME280;11841;49.368;20.962;2023-06-01T02:42:19;96026.09;;;6.99;81.40
23339;BME280;11841;49.368;20.962;2023-06-01T02:45:06;96018.56;;;6.96;81.05
23339;BME280;11841;49.368;20.962;2023-06-01T02:47:51;96017.13;;;6.94;80.96
23339;BME280;11841;49.368;20.962;2023-06-01T02:50:37;96017.28;;;6.92;81.62
23339;BME280;11841;49.368;20.962;2023-06-01T02:53:22;96008.41;;;6.93;81.60
23339;BME280;11841;49.368;20.962;2023-06-01T02:56:08;95998.94;;;6.99;81.99
23339;BME280;11841;49.368;20.962;2023-06-01T02:58:53;96011.28;;;6.98;81.44
23339;BME280;11841;49.368;20.962;2023-06-01T03:01:38;96009.84;;;6.96;81.55
23339;BME280;11841;49.368;20.962;2023-06-01T03:04:24;96013.66;;;6.93;81.48
23339;BME280;11841;49.368;20.962;2023-06-01T03:07:09;96014.66;;;6.92;82.09
23339;BME280;11841;49.368;20.962;2023-06-01T03:09:54;96013.88;;;6.92;81.88
23339;BME280;11841;49.368;20.962;2023-06-01T03:12:40;96011.03;;;6.93;82.25
23339;BME280;11841;49.368;20.962;2023-06-01T03:15:25;96015.47;;;6.93;81.98
23339;BME280;11841;49.368;20.962;2023-06-01T03:18:12;96007.75;;;6.91;81.75
23339;BME280;11841;49.368;20.962;2023-06-01T03:20:59;96006.16;;;6.90;81.86
23339;BME280;11841;49.368;20.962;2023-06-01T03:23:44;96006.94;;;6.91;81.89
23339;BME280;11841;49.368;20.962;2023-06-01T03:26:30;96005.75;;;6.93;81.88
23339;BME280;11841;49.368;20.962;2023-06-01T03:29:16;96009.03;;;6.95;82.62
23339;BME280;11841;49.368;20.962;2023-06-01T03:32:01;96008.28;;;7.01;82.75
23339;BME280;11841;49.368;20.962;2023-06-01T03:34:46;96005.25;;;7.04;82.49
23339;BME280;11841;49.368;20.962;2023-06-01T03:37:32;96001.06;;;7.10;82.36
23339;BME280;11841;49.368;20.962;2023-06-01T03:40:17;96004.78;;;7.15;82.38
23339;BME280;11841;49.368;20.962;2023-06-01T03:43:02;96004.00;;;7.21;83.25
23339;BME280;11841;49.368;20.962;2023-06-01T03:45:48;96001.63;;;7.26;83.11
23339;BME280;11841;49.368;20.962;2023-06-01T03:48:33;96002.44;;;7.27;83.52
23339;BME280;11841;49.368;20.962;2023-06-01T03:51:19;95994.16;;;7.30;83.96
23339;BME280;11841;49.368;20.962;2023-06-01T03:54:04;95994.59;;;7.33;84.10
23339;BME280;11841;49.368;20.962;2023-06-01T03:56:50;95995.28;;;7.42;83.94
23339;BME280;11841;49.368;20.962;2023-06-01T03:59:35;96002.06;;;7.51;84.39
23339;BME280;11841;49.368;20.962;2023-06-01T04:02:20;95993.38;;;7.57;84.40
23339;BME280;11841;49.368;20.962;2023-06-01T04:05:08;95996.88;;;7.64;83.98
23339;BME280;11841;49.368;20.962;2023-06-01T04:07:59;95992.03;;;7.68;84.52
23339;BME280;11841;49.368;20.962;2023-06-01T04:10:44;95992.28;;;7.73;85.42
23339;BME280;11841;49.368;20.962;2023-06-01T04:13:29;95992.47;;;7.71;86.82
23339;BME280;11841;49.368;20.962;2023-06-01T04:16:18;95989.88;;;7.78;87.09
23339;BME280;11841;49.368;20.962;2023-06-01T04:19:03;95988.72;;;7.87;87.32
23339;BME280;11841;49.368;20.962;2023-06-01T04:21:49;95992.22;;;7.94;87.07
23339;BME280;11841;49.368;20.962;2023-06-01T04:24:38;95986.16;;;8.00;86.89
23339;BME280;11841;49.368;20.962;2023-06-01T04:27:23;95987.00;;;8.07;86.44
23339;BME280;11841;49.368;20.962;2023-06-01T04:30:10;95976.69;;;8.12;87.27
23339;BME280;11841;49.368;20.962;2023-06-01T04:32:55;95988.06;;;8.12;89.18
23339;BME280;11841;49.368;20.962;2023-06-01T04:35:41;95981.75;;;8.13;89.87
23339;BME280;11841;49.368;20.962;2023-06-01T04:38:29;95978.16;;;8.21;91.03
23339;BME280;11841;49.368;20.962;2023-06-01T04:41:17;95974.34;;;8.30;90.60
23339;BME280;11841;49.368;20.962;2023-06-01T04:44:02;95976.03;;;8.37;91.31
23339;BME280;11841;49.368;20.962;2023-06-01T04:46:51;95965.50;;;8.44;92.32
23339;BME280;11841;49.368;20.962;2023-06-01T04:49:40;95959.66;;;8.55;91.39
23339;BME280;11841;49.368;20.962;2023-06-01T04:52:26;95963.72;;;8.64;91.34
23339;BME280;11841;49.368;20.962;2023-06-01T04:55:12;95960.09;;;8.72;92.09
23339;BME280;11841;49.368;20.962;2023-06-01T04:58:00;95957.91;;;8.82;92.83
23339;BME280;11841;49.368;20.962;2023-06-01T05:00:46;95953.84;;;8.92;92.98
23339;BME280;11841;49.368;20.962;2023-06-01T05:03:31;95941.25;;;9.01;93.72
23339;BME280;11841;49.368;20.962;2023-06-01T05:06:16;95954.09;;;9.10;93.40
23339;BME280;11841;49.368;20.962;2023-06-01T05:09:01;95952.88;;;9.19;93.42
23339;BME280;11841;49.368;20.962;2023-06-01T05:11:48;95952.25;;;9.30;94.01
23339;BME280;11841;49.368;20.962;2023-06-01T05:14:34;95948.22;;;9.41;94.04
23339;BME280;11841;49.368;20.962;2023-06-01T05:17:19;95950.44;;;9.50;93.38
23339;BME280;11841;49.368;20.962;2023-06-01T05:20:06;95958.97;;;9.59;93.13
23339;BME280;11841;49.368;20.962;2023-06-01T05:22:54;95954.91;;;9.69;93.51
23339;BME280;11841;49.368;20.962;2023-06-01T05:25:40;95944.09;;;9.77;93.35
23339;BME280;11841;49.368;20.962;2023-06-01T05:28:25;95948.56;;;9.90;94.27
23339;BME280;11841;49.368;20.962;2023-06-01T05:31:12;95951.41;;;10.02;93.98
23339;BME280;11841;49.368;20.962;2023-06-01T05:33:57;95942.44;;;10.16;94.25
23339;BME280;11841;49.368;20.962;2023-06-01T05:36:43;95947.06;;;10.27;93.50
23339;BME280;11841;49.368;20.962;2023-06-01T05:39:28;95934.63;;;10.34;93.09
23339;BME280;11841;49.368;20.962;2023-06-01T05:42:13;95935.41;;;10.41;93.26
23339;BME280;11841;49.368;20.962;2023-06-01T05:44:58;95937.38;;;10.58;93.74
23339;BME280;11841;49.368;20.962;2023-06-01T05:47:43;95937.75;;;10.68;93.47
23339;BME280;11841;49.368;20.962;2023-06-01T05:50:28;95927.44;;;10.85;93.49
23339;BME280;11841;49.368;20.962;2023-06-01T05:53:14;95930.22;;;10.96;92.75
23339;BME280;11841;49.368;20.962;2023-06-01T05:55:59;95928.13;;;11.05;92.67
23339;BME280;11841;49.368;20.962;2023-06-01T05:58:44;95921.72;;;11.19;93.03
23339;BME280;11841;49.368;20.962;2023-06-01T06:01:30;95921.63;;;11.32;92.98
23339;BME280;11841;49.368;20.962;2023-06-01T06:04:16;95911.09;;;11.44;92.57
23339;BME280;11841;49.368;20.962;2023-06-01T06:07:02;95916.94;;;11.59;91.79
23339;BME280;11841;49.368;20.962;2023-06-01T06:09:47;95911.13;;;11.68;91.76
23339;BME280;11841;49.368;20.962;2023-06-01T06:12:32;95912.88;;;11.81;91.43
23339;BME280;11841;49.368;20.962;2023-06-01T06:15:17;95908.25;;;11.94;90.85
23339;BME280;11841;49.368;20.962;2023-06-01T06:18:03;95908.25;;;12.12;90.77
23339;BME280;11841;49.368;20.962;2023-06-01T06:20:49;95902.91;;;12.31;89.89
23339;BME280;11841;49.368;20.962;2023-06-01T06:23:34;95909.94;;;12.43;89.25
23339;BME280;11841;49.368;20.962;2023-06-01T06:26:19;95912.06;;;12.53;89.07
23339;BME280;11841;49.368;20.962;2023-06-01T06:29:05;95909.66;;;12.63;88.97
23339;BME280;11841;49.368;20.962;2023-06-01T06:31:51;95912.88;;;12.83;88.67
23339;BME280;11841;49.368;20.962;2023-06-01T06:34:36;95904.88;;;13.01;87.97
23339;BME280;11841;49.368;20.962;2023-06-01T06:37:21;95901.56;;;13.17;87.45
23339;BME280;11841;49.368;20.962;2023-06-01T06:40:07;95904.06;;;13.30;86.96
23339;BME280;11841;49.368;20.962;2023-06-01T06:42:53;95893.78;;;13.45;86.67
23339;BME280;11841;49.368;20.962;2023-06-01T06:45:38;95898.28;;;13.56;86.29
23339;BME280;11841;49.368;20.962;2023-06-01T06:48:23;95892.97;;;13.79;84.91
23339;BME280;11841;49.368;20.962;2023-06-01T06:51:09;95888.66;;;13.90;84.04
23339;BME280;11841;49.368;20.962;2023-06-01T06:53:54;95887.03;;;14.12;83.10
23339;BME280;11841;49.368;20.962;2023-06-01T06:56:39;95869.88;;;14.31;81.96
23339;BME280;11841;49.368;20.962;2023-06-01T06:59:25;95875.88;;;14.38;81.29
23339;BME280;11841;49.368;20.962;2023-06-01T07:02:10;95880.94;;;14.51;80.37
23339;BME280;11841;49.368;20.962;2023-06-01T07:04:56;95876.03;;;14.60;78.43
23339;BME280;11841;49.368;20.962;2023-06-01T07:07:41;95874.91;;;14.84;75.63
23339;BME280;11841;49.368;20.962;2023-06-01T07:10:28;95868.16;;;15.09;73.86
23339;BME280;11841;49.368;20.962;2023-06-01T07:13:14;95876.03;;;15.16;73.85
23339;BME280;11841;49.368;20.962;2023-06-01T07:16:00;95861.06;;;15.31;72.60
23339;BME280;11841;49.368;20.962;2023-06-01T07:18:45;95859.41;;;15.42;72.37
23339;BME280;11841;49.368;20.962;2023-06-01T07:21:30;95862.06;;;15.75;69.39
23339;BME280;11841;49.368;20.962;2023-06-01T07:24:19;95856.38;;;15.88;68.45
23339;BME280;11841;49.368;20.962;2023-06-01T07:27:04;95852.66;;;15.89;68.05
23339;BME280;11841;49.368;20.962;2023-06-01T07:29:50;95857.50;;;15.92;67.02
23339;BME280;11841;49.368;20.962;2023-06-01T07:32:39;95856.16;;;16.11;66.48
23339;BME280;11841;49.368;20.962;2023-06-01T07:35:26;95852.19;;;16.35;66.87
23339;BME280;11841;49.368;20.962;2023-06-01T07:38:12;95856.69;;;16.51;64.22
23339;BME280;11841;49.368;20.962;2023-06-01T07:40:57;95855.22;;;16.60;63.46
23339;BME280;11841;49.368;20.962;2023-06-01T07:43:42;95847.09;;;16.77;62.95
23339;BME280;11841;49.368;20.962;2023-06-01T07:46:27;95842.75;;;16.98;61.22
23339;BME280;11841;49.368;20.962;2023-06-01T07:49:14;95838.03;;;17.10;61.27
23339;BME280;11841;49.368;20.962;2023-06-01T07:51:59;95843.50;;;17.20;61.10
23339;BME280;11841;49.368;20.962;2023-06-01T07:54:45;95837.22;;;17.36;58.88
23339;BME280;11841;49.368;20.962;2023-06-01T07:57:30;95837.34;;;17.46;58.70
23339;BME280;11841;49.368;20.962;2023-06-01T08:00:16;95825.88;;;17.55;58.02
23339;BME280;11841;49.368;20.962;2023-06-01T08:03:02;95835.63;;;17.66;58.28
23339;BME280;11841;49.368;20.962;2023-06-01T08:05:52;95833.31;;;17.85;57.67
23339;BME280;11841;49.368;20.962;2023-06-01T08:08:42;95826.66;;;17.92;58.76
23339;BME280;11841;49.368;20.962;2023-06-01T08:11:28;95836.13;;;18.05;58.60
23339;BME280;11841;49.368;20.962;2023-06-01T08:14:13;95825.44;;;18.15;58.95
23339;BME280;11841;49.368;20.962;2023-06-01T08:17:02;95826.03;;;18.22;59.26
23339;BME280;11841;49.368;20.962;2023-06-01T08:19:47;95820.41;;;18.29;59.44
23339;BME280;11841;49.368;20.962;2023-06-01T08:22:33;95822.13;;;18.50;58.21
23339;BME280;11841;49.368;20.962;2023-06-01T08:25:18;95812.47;;;18.49;58.18
23339;BME280;11841;49.368;20.962;2023-06-01T08:28:04;95814.03;;;18.45;58.27
23339;BME280;11841;49.368;20.962;2023-06-01T08:30:49;95803.03;;;18.46;59.41
23339;BME280;11841;49.368;20.962;2023-06-01T08:33:35;95802.81;;;18.53;58.45
23339;BME280;11841;49.368;20.962;2023-06-01T08:36:20;95802.84;;;18.68;58.10
23339;BME280;11841;49.368;20.962;2023-06-01T08:39:23;95801.00;;;18.78;57.98
23339;BME280;11841;49.368;20.962;2023-06-01T08:42:13;95795.94;;;18.87;58.15
23339;BME280;11841;49.368;20.962;2023-06-01T08:45:04;95795.13;;;18.96;57.84
23339;BME280;11841;49.368;20.962;2023-06-01T08:47:52;95790.84;;;19.05;57.13
23339;BME280;11841;49.368;20.962;2023-06-01T08:50:38;95796.25;;;19.31;55.17
23339;BME280;11841;49.368;20.962;2023-06-01T08:53:26;95790.06;;;19.40;52.83
23339;BME280;11841;49.368;20.962;2023-06-01T08:56:13;95780.69;;;19.38;52.88
23339;BME280;11841;49.368;20.962;2023-06-01T08:58:59;95782.28;;;19.39;53.07
23339;BME280;11841;49.368;20.962;2023-06-01T09:01:45;95779.59;;;19.44;53.54
23339;BME280;11841;49.368;20.962;2023-06-01T09:04:32;95779.28;;;19.55;53.29
23339;BME280;11841;49.368;20.962;2023-06-01T09:07:23;95773.66;;;19.57;54.56
23339;BME280;11841;49.368;20.962;2023-06-01T09:10:09;95766.63;;;19.71;54.22
23339;BME280;11841;49.368;20.962;2023-06-01T09:12:55;95767.97;;;19.78;55.14
23339;BME280;11841;49.368;20.962;2023-06-01T09:15:51;95759.63;;;19.85;53.62
23339;BME280;11841;49.368;20.962;2023-06-01T09:18:50;95764.97;;;19.90;53.52
23339;BME280;11841;49.368;20.962;2023-06-01T09:21:37;95765.22;;;19.98;53.48
23339;BME280;11841;49.368;20.962;2023-06-01T09:24:22;95768.16;;;20.07;53.47
23339;BME280;11841;49.368;20.962;2023-06-01T09:27:07;95765.44;;;20.12;52.16
23339;BME280;11841;49.368;20.962;2023-06-01T09:29:57;95761.16;;;20.16;51.75
23339;BME280;11841;49.368;20.962;2023-06-01T09:32:45;95761.16;;;20.21;51.54
23339;BME280;11841;49.368;20.962;2023-06-01T09:35:49;95753.59;;;20.23;52.02
23339;BME280;11841;49.368;20.962;2023-06-01T09:38:35;95753.56;;;20.28;53.26
23339;BME280;11841;49.368;20.962;2023-06-01T09:41:20;95747.34;;;20.37;52.79
23339;BME280;11841;49.368;20.962;2023-06-01T09:44:08;95751.84;;;20.47;51.95
23339;BME280;11841;49.368;20.962;2023-06-01T09:47:01;95742.44;;;20.50;51.55
23339;BME280;11841;49.368;20.962;2023-06-01T09:49:50;95734.84;;;20.57;50.84
23339;BME280;11841;49.368;20.962;2023-06-01T09:52:35;95739.34;;;20.71;50.25
23339;BME280;11841;49.368;20.962;2023-06-01T09:55:21;95749.53;;;20.79;51.67
23339;BME280;11841;49.368;20.962;2023-06-01T09:58:20;95740.84;;;20.87;51.33
23339;BME280;11841;49.368;20.962;2023-06-01T10:01:06;95741.31;;;20.99;50.56
23339;BME280;11841;49.368;20.962;2023-06-01T10:03:56;95736.72;;;21.05;50.72
23339;BME280;11841;49.368;20.962;2023-06-01T10:06:42;95731.22;;;21.15;50.82
23339;BME280;11841;49.368;20.962;2023-06-01T10:09:29;95730.13;;;21.21;49.77
23339;BME280;11841;49.368;20.962;2023-06-01T10:12:16;95734.00;;;21.38;49.05
23339;BME280;11841;49.368;20.962;2023-06-01T10:15:02;95729.56;;;21.52;46.50
23339;BME280;11841;49.368;20.962;2023-06-01T10:18:08;95727.00;;;21.66;45.84
23339;BME280;11841;49.368;20.962;2023-06-01T10:20:55;95721.81;;;21.70;45.31
23339;BME280;11841;49.368;20.962;2023-06-01T10:23:40;95722.34;;;21.72;46.36
23339;BME280;11841;49.368;20.962;2023-06-01T10:26:27;95716.34;;;21.80;46.68
23339;BME280;11841;49.368;20.962;2023-06-01T10:29:16;95711.41;;;21.87;45.25
23339;BME280;11841;49.368;20.962;2023-06-01T10:32:02;95704.13;;;21.87;46.67
23339;BME280;11841;49.368;20.962;2023-06-01T10:34:47;95699.47;;;21.93;44.30
23339;BME280;11841;49.368;20.962;2023-06-01T10:37:33;95701.88;;;21.94;43.56
23339;BME280;11841;49.368;20.962;2023-06-01T10:40:20;95701.41;;;22.11;44.50
23339;BME280;11841;49.368;20.962;2023-06-01T10:46:36;95689.69;;;22.39;44.33
23339;BME280;11841;49.368;20.962;2023-06-01T10:49:22;95686.84;;;22.49;44.24
23339;BME280;11841;49.368;20.962;2023-06-01T10:58:19;95686.16;;;22.62;44.00
23339;BME280;11841;49.368;20.962;2023-06-01T11:01:06;95680.53;;;22.77;43.44
23339;BME280;11841;49.368;20.962;2023-06-01T11:03:52;95686.16;;;22.99;43.45
23339;BME280;11841;49.368;20.962;2023-06-01T11:06:39;95669.53;;;23.06;42.89
23339;BME280;11841;49.368;20.962;2023-06-01T11:09:43;95668.78;;;23.19;42.62
23339;BME280;11841;49.368;20.962;2023-06-01T11:13:10;95668.63;;;23.29;41.54
23339;BME280;11841;49.368;20.962;2023-06-01T11:19:00;95666.16;;;23.46;42.70
23339;BME280;11841;49.368;20.962;2023-06-01T11:21:47;95653.84;;;23.53;42.19
23339;BME280;11841;49.368;20.962;2023-06-01T11:24:34;95653.16;;;23.61;41.42
23339;BME280;11841;49.368;20.962;2023-06-01T11:27:20;95657.16;;;23.77;42.44
23339;BME280;11841;49.368;20.962;2023-06-01T11:30:06;95642.22;;;23.80;43.04
23339;BME280;11841;49.368;20.962;2023-06-01T11:32:55;95646.81;;;23.79;42.19
23339;BME280;11841;49.368;20.962;2023-06-01T11:35:42;95647.44;;;23.90;39.91
23339;BME280;11841;49.368;20.962;2023-06-01T11:38:33;95642.66;;;24.01;40.63
23339;BME280;11841;49.368;20.962;2023-06-01T11:41:20;95639.84;;;24.06;39.59
23339;BME280;11841;49.368;20.962;2023-06-01T11:44:08;95635.22;;;24.06;40.87
23339;BME280;11841;49.368;20.962;2023-06-01T11:46:55;95638.91;;;24.10;40.74
23339;BME280;11841;49.368;20.962;2023-06-01T11:49:42;95626.78;;;24.21;40.68
23339;BME280;11841;49.368;20.962;2023-06-01T11:52:32;95626.94;;;24.38;42.05
23339;BME280;11841;49.368;20.962;2023-06-01T11:55:19;95620.97;;;24.50;40.76
23339;BME280;11841;49.368;20.962;2023-06-01T11:58:04;95630.69;;;24.51;40.83
23339;BME280;11841;49.368;20.962;2023-06-01T12:00:52;95622.34;;;24.61;40.56
23339;BME280;11841;49.368;20.962;2023-06-01T12:03:45;95621.03;;;24.72;41.00
23339;BME280;11841;49.368;20.962;2023-06-01T12:06:31;95611.34;;;24.79;40.92
23339;BME280;11841;49.368;20.962;2023-06-01T12:09:17;95607.72;;;24.84;40.42
23339;BME280;11841;49.368;20.962;2023-06-01T12:12:03;95608.66;;;24.66;39.73
23339;BME280;11841;49.368;20.962;2023-06-01T12:14:50;95600.28;;;24.54;41.80
23339;BME280;11841;49.368;20.962;2023-06-01T12:17:46;95602.81;;;24.50;40.09
23339;BME280;11841;49.368;20.962;2023-06-01T12:23:20;95601.19;;;24.49;40.20
23339;BME280;11841;49.368;20.962;2023-06-01T12:26:07;95589.47;;;24.40;39.98
23339;BME280;11841;49.368;20.962;2023-06-01T12:28:53;95586.25;;;24.52;40.61
23339;BME280;11841;49.368;20.962;2023-06-01T12:31:53;95581.06;;;24.77;41.73
23339;BME280;11841;49.368;20.962;2023-06-01T12:34:40;95586.56;;;24.94;42.73
23339;BME280;11841;49.368;20.962;2023-06-01T12:37:30;95586.38;;;25.13;42.49
23339;BME280;11841;49.368;20.962;2023-06-01T12:40:22;95584.94;;;25.16;38.61
23339;BME280;11841;49.368;20.962;2023-06-01T12:43:26;95584.88;;;25.07;39.37
23339;BME280;11841;49.368;20.962;2023-06-01T12:49:11;95573.56;;;24.83;39.21
23339;BME280;11841;49.368;20.962;2023-06-01T12:51:57;95570.25;;;24.86;40.70
23339;BME280;11841;49.368;20.962;2023-06-01T12:54:42;95566.22;;;25.05;40.05
23339;BME280;11841;49.368;20.962;2023-06-01T12:57:27;95559.50;;;25.03;40.20
23339;BME280;11841;49.368;20.962;2023-06-01T13:00:13;95559.34;;;25.08;39.88
23339;BME280;11841;49.368;20.962;2023-06-01T13:02:58;95550.75;;;25.06;39.64
23339;BME280;11841;49.368;20.962;2023-06-01T13:05:44;95554.19;;;24.98;39.12
23339;BME280;11841;49.368;20.962;2023-06-01T13:08:30;95559.63;;;24.98;40.47
23339;BME280;11841;49.368;20.962;2023-06-01T13:11:16;95544.53;;;25.05;40.10
23339;BME280;11841;49.368;20.962;2023-06-01T13:14:02;95543.88;;;25.08;40.47
23339;BME280;11841;49.368;20.962;2023-06-01T13:16:47;95541.50;;;25.07;39.26
23339;BME280;11841;49.368;20.962;2023-06-01T13:19:32;95533.66;;;25.05;39.86
23339;BME280;11841;49.368;20.962;2023-06-01T13:22:18;95529.78;;;24.98;40.39
23339;BME280;11841;49.368;20.962;2023-06-01T13:25:04;95534.22;;;25.16;41.70
23339;BME280;11841;49.368;20.962;2023-06-01T13:27:50;95529.84;;;25.37;40.93
23339;BME280;11841;49.368;20.962;2023-06-01T13:30:36;95528.63;;;25.52;41.01
23339;BME280;11841;49.368;20.962;2023-06-01T13:33:21;95522.25;;;25.56;40.59
23339;BME280;11841;49.368;20.962;2023-06-01T13:36:06;95525.44;;;25.58;41.37
23339;BME280;11841;49.368;20.962;2023-06-01T13:38:52;95529.78;;;25.68;39.43
23339;BME280;11841;49.368;20.962;2023-06-01T13:41:37;95520.19;;;25.62;39.55
23339;BME280;11841;49.368;20.962;2023-06-01T13:44:24;95518.28;;;25.62;38.84
23339;BME280;11841;49.368;20.962;2023-06-01T13:47:10;95504.84;;;25.49;38.87
23339;BME280;11841;49.368;20.962;2023-06-01T13:49:55;95510.72;;;25.51;39.90
23339;BME280;11841;49.368;20.962;2023-06-01T13:52:40;95513.75;;;25.49;41.09
23339;BME280;11841;49.368;20.962;2023-06-01T13:55:26;95508.53;;;25.61;40.97
23339;BME280;11841;49.368;20.962;2023-06-01T13:58:13;95501.53;;;25.77;40.82
23339;BME280;11841;49.368;20.962;2023-06-01T14:00:58;95501.41;;;25.91;40.03
23339;BME280;11841;49.368;20.962;2023-06-01T14:03:43;95499.63;;;25.86;38.80
23339;BME280;11841;49.368;20.962;2023-06-01T14:06:29;95485.59;;;25.84;38.89
23339;BME280;11841;49.368;20.962;2023-06-01T14:09:14;95488.44;;;25.96;40.19
23339;BME280;11841;49.368;20.962;2023-06-01T14:12:00;95483.00;;;25.96;39.82
23339;BME280;11841;49.368;20.962;2023-06-01T14:14:45;95486.25;;;26.15;39.88
23339;BME280;11841;49.368;20.962;2023-06-01T14:17:30;95481.47;;;26.30;40.56
23339;BME280;11841;49.368;20.962;2023-06-01T14:20:16;95473.78;;;26.32;40.18
23339;BME280;11841;49.368;20.962;2023-06-01T14:23:01;95471.84;;;26.41;39.66
23339;BME280;11841;49.368;20.962;2023-06-01T14:25:48;95480.31;;;26.48;39.20
23339;BME280;11841;49.368;20.962;2023-06-01T14:28:34;95476.94;;;26.51;39.15
23339;BME280;11841;49.368;20.962;2023-06-01T14:31:19;95473.44;;;26.59;39.49
23339;BME280;11841;49.368;20.962;2023-06-01T14:34:05;95468.78;;;26.68;39.95
23339;BME280;11841;49.368;20.962;2023-06-01T14:36:50;95460.28;;;26.78;40.47
23339;BME280;11841;49.368;20.962;2023-06-01T14:39:36;95458.34;;;26.87;40.54
23339;BME280;11841;49.368;20.962;2023-06-01T14:42:21;95458.53;;;26.65;38.27
23339;BME280;11841;49.368;20.962;2023-06-01T14:45:07;95453.75;;;26.53;39.07
23339;BME280;11841;49.368;20.962;2023-06-01T14:47:52;95454.44;;;26.42;39.18
23339;BME280;11841;49.368;20.962;2023-06-01T14:50:37;95447.19;;;26.54;38.88
23339;BME280;11841;49.368;20.962;2023-06-01T14:53:22;95445.13;;;26.68;38.58
23339;BME280;11841;49.368;20.962;2023-06-01T14:56:08;95442.03;;;26.78;38.51
23339;BME280;11841;49.368;20.962;2023-06-01T14:58:54;95439.47;;;26.82;37.95
23339;BME280;11841;49.368;20.962;2023-06-01T15:01:39;95438.25;;;26.62;37.01
23339;BME280;11841;49.368;20.962;2023-06-01T15:04:26;95439.38;;;26.44;37.95